首页
METAR-TAF:

METAR-TAF

机场 :

Geilenkirchen, 德国

纬度: 50-57-39N, 经度: 006-2-33E, 海拔: 90米

当前天气观测

该预报发布于30分钟前的03:50 UTC
风速5节,风向
温度 3°C
湿度 93%
气压 998 hPa
能见度10公里或以上
1500米以下无云,无积雨云

METAR: ETNG 140350Z 10005KT CAVOK 03/02 Q0998

时间: 05:20 (04:20 UTC)

预报

预报有效从14日的 04点(UTC)到 14日的 18点(UTC)
风速8节,风向东转东南
能见度10公里或以上
少量云层高于2000英尺
多云层高于28000英尺
成为
从 14日的 13点(UTC)到 14日的 15点(UTC)
风速3节,风向多变

TAF: ETNG 1404/1418 12008KT 9999 FEW020 BKN280 BECMG 1413/1415 VRB03KT

超过4000个机场的气象观测和天气预报(METAR&TAF报告)。

可查询的气象台以黄色和红色小点在地图上表示。

将鼠标移到小点上方,可查看气象台名称。

然后点击查看天气观测和预报。

如需切换地图:点击带黑十字的绿色按钮放大地图;点击带横线的绿色按钮缩小地图;或者点击绿色箭头查看邻近地区的地图。


METAR-TAF: